sensor_id;sensor_type;location;lat;lon;timestamp;P1;durP1;ratioP1;P2;durP2;ratioP2
61025;SDS011;46911;32.650;-16.902;2022-08-02T00:00:35;18.10;;;6.03;;
61025;SDS011;46911;32.650;-16.902;2022-08-02T00:02:41;23.33;;;6.97;;
61025;SDS011;46911;32.650;-16.902;2022-08-02T00:04:45;16.55;;;5.85;;
61025;SDS011;46911;32.650;-16.902;2022-08-02T00:06:48;30.08;;;5.43;;
61025;SDS011;46911;32.650;-16.902;2022-08-02T00:08:52;16.45;;;4.60;;
61025;SDS011;46911;32.650;-16.902;2022-08-02T00:10:55;19.65;;;5.20;;
61025;SDS011;46911;32.650;-16.902;2022-08-02T00:13:01;18.33;;;5.07;;
61025;SDS011;46911;32.650;-16.902;2022-08-02T00:15:03;16.17;;;4.13;;
61025;SDS011;46911;32.650;-16.902;2022-08-02T00:17:09;18.85;;;3.75;;
61025;SDS011;46911;32.650;-16.902;2022-08-02T00:19:10;16.52;;;4.15;;
61025;SDS011;46911;32.650;-16.902;2022-08-02T00:21:15;24.05;;;4.13;;
61025;SDS011;46911;32.650;-16.902;2022-08-02T00:23:18;25.13;;;4.15;;
61025;SDS011;46911;32.650;-16.902;2022-08-02T00:25:25;18.52;;;4.32;;
61025;SDS011;46911;32.650;-16.902;2022-08-02T00:27:32;18.77;;;4.38;;
61025;SDS011;46911;32.650;-16.902;2022-08-02T00:29:35;24.77;;;4.75;;
61025;SDS011;46911;32.650;-16.902;2022-08-02T00:31:37;16.60;;;4.35;;
61025;SDS011;46911;32.650;-16.902;2022-08-02T00:33:38;23.70;;;4.80;;
61025;SDS011;46911;32.650;-16.902;2022-08-02T00:35:39;18.65;;;5.45;;
61025;SDS011;46911;32.650;-16.902;2022-08-02T00:37:40;24.65;;;5.20;;
61025;SDS011;46911;32.650;-16.902;2022-08-02T00:39:42;18.65;;;5.25;;
61025;SDS011;46911;32.650;-16.902;2022-08-02T00:41:44;20.70;;;5.28;;
61025;SDS011;46911;32.650;-16.902;2022-08-02T00:43:48;20.17;;;4.97;;
61025;SDS011;46911;32.650;-16.902;2022-08-02T00:45:53;18.35;;;4.93;;
61025;SDS011;46911;32.650;-16.902;2022-08-02T00:47:56;19.45;;;5.82;;
61025;SDS011;46911;32.650;-16.902;2022-08-02T00:50:00;18.65;;;5.18;;
61025;SDS011;46911;32.650;-16.902;2022-08-02T00:52:01;24.40;;;5.05;;
61025;SDS011;46911;32.650;-16.902;2022-08-02T00:54:02;19.27;;;4.03;;
61025;SDS011;46911;32.650;-16.902;2022-08-02T00:56:04;11.68;;;4.15;;
61025;SDS011;46911;32.650;-16.902;2022-08-02T00:58:05;15.65;;;3.50;;
61025;SDS011;46911;32.650;-16.902;2022-08-02T01:00:08;19.70;;;3.70;;
61025;SDS011;46911;32.650;-16.902;2022-08-02T01:02:10;19.52;;;3.50;;
61025;SDS011;46911;32.650;-16.902;2022-08-02T01:04:15;19.63;;;4.35;;
61025;SDS011;46911;32.650;-16.902;2022-08-02T01:06:21;23.15;;;5.05;;
61025;SDS011;46911;32.650;-16.902;2022-08-02T01:08:22;20.65;;;4.07;;
61025;SDS011;46911;32.650;-16.902;2022-08-02T01:10:22;22.30;;;4.68;;
61025;SDS011;46911;32.650;-16.902;2022-08-02T01:12:23;20.45;;;4.43;;
61025;SDS011;46911;32.650;-16.902;2022-08-02T01:14:24;19.55;;;5.25;;
61025;SDS011;46911;32.650;-16.902;2022-08-02T01:16:30;16.02;;;4.20;;
61025;SDS011;46911;32.650;-16.902;2022-08-02T01:18:39;23.20;;;5.75;;
61025;SDS011;46911;32.650;-16.902;2022-08-02T01:23:01;19.55;;;5.07;;
61025;SDS011;46911;32.650;-16.902;2022-08-02T01:28:01;13.80;;;3.45;;
61025;SDS011;46911;32.650;-16.902;2022-08-02T01:30:18;25.42;;;4.13;;
61025;SDS011;46911;32.650;-16.902;2022-08-02T01:32:26;20.63;;;4.03;;
61025;SDS011;46911;32.650;-16.902;2022-08-02T01:34:33;12.45;;;3.15;;
61025;SDS011;46911;32.650;-16.902;2022-08-02T01:36:52;20.00;;;3.97;;
61025;SDS011;46911;32.650;-16.902;2022-08-02T01:38:57;22.73;;;4.20;;
61025;SDS011;46911;32.650;-16.902;2022-08-02T01:41:04;34.65;;;4.38;;
61025;SDS011;46911;32.650;-16.902;2022-08-02T01:43:15;22.40;;;3.78;;
61025;SDS011;46911;32.650;-16.902;2022-08-02T01:45:19;16.13;;;3.63;;
61025;SDS011;46911;32.650;-16.902;2022-08-02T01:47:25;19.35;;;3.95;;
61025;SDS011;46911;32.650;-16.902;2022-08-02T01:49:35;17.67;;;3.35;;
61025;SDS011;46911;32.650;-16.902;2022-08-02T01:51:41;16.90;;;2.95;;
61025;SDS011;46911;32.650;-16.902;2022-08-02T01:54:01;15.10;;;3.58;;
61025;SDS011;46911;32.650;-16.902;2022-08-02T01:56:06;25.58;;;4.80;;
61025;SDS011;46911;32.650;-16.902;2022-08-02T01:58:13;25.33;;;4.07;;
61025;SDS011;46911;32.650;-16.902;2022-08-02T02:00:18;13.32;;;3.20;;
61025;SDS011;46911;32.650;-16.902;2022-08-02T02:02:20;21.55;;;3.88;;
61025;SDS011;46911;32.650;-16.902;2022-08-02T02:04:23;18.65;;;3.90;;
61025;SDS011;46911;32.650;-16.902;2022-08-02T02:06:28;21.05;;;4.13;;
61025;SDS011;46911;32.650;-16.902;2022-08-02T02:08:33;19.63;;;3.67;;
61025;SDS011;46911;32.650;-16.902;2022-08-02T02:10:38;25.20;;;4.28;;
61025;SDS011;46911;32.650;-16.902;2022-08-02T02:12:45;24.50;;;3.95;;
61025;SDS011;46911;32.650;-16.902;2022-08-02T02:14:49;22.17;;;4.68;;
61025;SDS011;46911;32.650;-16.902;2022-08-02T02:16:51;24.20;;;4.43;;
61025;SDS011;46911;32.650;-16.902;2022-08-02T02:18:55;16.35;;;4.15;;
61025;SDS011;46911;32.650;-16.902;2022-08-02T02:20:57;27.00;;;4.45;;
61025;SDS011;46911;32.650;-16.902;2022-08-02T02:23:00;24.02;;;4.05;;
61025;SDS011;46911;32.650;-16.902;2022-08-02T02:25:01;13.65;;;3.70;;
61025;SDS011;46911;32.650;-16.902;2022-08-02T02:27:06;22.80;;;4.38;;
61025;SDS011;46911;32.650;-16.902;2022-08-02T02:29:09;19.23;;;3.55;;
61025;SDS011;46911;32.650;-16.902;2022-08-02T02:31:15;17.00;;;3.63;;
61025;SDS011;46911;32.650;-16.902;2022-08-02T02:33:20;20.77;;;4.35;;
61025;SDS011;46911;32.650;-16.902;2022-08-02T02:35:29;16.15;;;3.15;;
61025;SDS011;46911;32.650;-16.902;2022-08-02T02:37:36;23.33;;;4.15;;
61025;SDS011;46911;32.650;-16.902;2022-08-02T02:39:40;15.60;;;3.55;;
61025;SDS011;46911;32.650;-16.902;2022-08-02T02:41:42;20.02;;;3.72;;
61025;SDS011;46911;32.650;-16.902;2022-08-02T02:43:48;14.10;;;3.03;;
61025;SDS011;46911;32.650;-16.902;2022-08-02T02:45:50;17.75;;;4.00;;
61025;SDS011;46911;32.650;-16.902;2022-08-02T02:47:53;17.23;;;2.97;;
61025;SDS011;46911;32.650;-16.902;2022-08-02T02:49:59;14.32;;;2.92;;
61025;SDS011;46911;32.650;-16.902;2022-08-02T02:52:04;17.35;;;3.33;;
61025;SDS011;46911;32.650;-16.902;2022-08-02T02:54:10;19.30;;;3.92;;
61025;SDS011;46911;32.650;-16.902;2022-08-02T02:56:11;14.10;;;3.50;;
61025;SDS011;46911;32.650;-16.902;2022-08-02T02:58:15;10.65;;;3.10;;
61025;SDS011;46911;32.650;-16.902;2022-08-02T03:00:19;27.95;;;3.63;;
61025;SDS011;46911;32.650;-16.902;2022-08-02T03:02:43;12.93;;;3.10;;
61025;SDS011;46911;32.650;-16.902;2022-08-02T03:04:49;16.23;;;4.10;;
61025;SDS011;46911;32.650;-16.902;2022-08-02T03:07:02;15.38;;;3.40;;
61025;SDS011;46911;32.650;-16.902;2022-08-02T03:09:04;25.05;;;4.63;;
61025;SDS011;46911;32.650;-16.902;2022-08-02T03:11:10;15.73;;;3.15;;
61025;SDS011;46911;32.650;-16.902;2022-08-02T03:13:12;16.85;;;4.28;;
61025;SDS011;46911;32.650;-16.902;2022-08-02T03:15:13;20.40;;;4.03;;
61025;SDS011;46911;32.650;-16.902;2022-08-02T03:17:16;19.05;;;4.40;;
61025;SDS011;46911;32.650;-16.902;2022-08-02T03:19:18;14.43;;;4.05;;
61025;SDS011;46911;32.650;-16.902;2022-08-02T03:21:19;19.92;;;5.50;;
61025;SDS011;46911;32.650;-16.902;2022-08-02T03:23:20;18.10;;;4.60;;
61025;SDS011;46911;32.650;-16.902;2022-08-02T03:25:23;20.40;;;5.00;;
61025;SDS011;46911;32.650;-16.902;2022-08-02T03:27:30;9.50;;;3.40;;
61025;SDS011;46911;32.650;-16.902;2022-08-02T03:29:31;14.98;;;4.35;;
61025;SDS011;46911;32.650;-16.902;2022-08-02T03:31:34;8.63;;;3.45;;
61025;SDS011;46911;32.650;-16.902;2022-08-02T03:33:36;12.30;;;3.50;;
61025;SDS011;46911;32.650;-16.902;2022-08-02T03:35:40;11.65;;;3.67;;
61025;SDS011;46911;32.650;-16.902;2022-08-02T03:37:47;15.73;;;3.78;;
61025;SDS011;46911;32.650;-16.902;2022-08-02T03:39:50;22.33;;;4.35;;
61025;SDS011;46911;32.650;-16.902;2022-08-02T03:41:52;13.55;;;3.45;;
61025;SDS011;46911;32.650;-16.902;2022-08-02T03:43:54;18.90;;;3.70;;
61025;SDS011;46911;32.650;-16.902;2022-08-02T03:45:56;8.60;;;3.05;;
61025;SDS011;46911;32.650;-16.902;2022-08-02T03:47:58;13.00;;;2.63;;
61025;SDS011;46911;32.650;-16.902;2022-08-02T03:50:02;18.48;;;4.45;;
61025;SDS011;46911;32.650;-16.902;2022-08-02T03:52:04;19.77;;;3.22;;
61025;SDS011;46911;32.650;-16.902;2022-08-02T03:54:08;12.95;;;2.85;;
61025;SDS011;46911;32.650;-16.902;2022-08-02T03:56:09;16.45;;;3.10;;
61025;SDS011;46911;32.650;-16.902;2022-08-02T03:58:17;10.57;;;3.60;;
61025;SDS011;46911;32.650;-16.902;2022-08-02T04:00:22;9.55;;;3.03;;
61025;SDS011;46911;32.650;-16.902;2022-08-02T04:02:23;11.70;;;3.08;;
61025;SDS011;46911;32.650;-16.902;2022-08-02T04:04:24;15.48;;;3.13;;
61025;SDS011;46911;32.650;-16.902;2022-08-02T04:06:25;17.27;;;2.92;;
61025;SDS011;46911;32.650;-16.902;2022-08-02T04:08:28;12.23;;;2.70;;
61025;SDS011;46911;32.650;-16.902;2022-08-02T04:10:29;10.15;;;2.70;;
61025;SDS011;46911;32.650;-16.902;2022-08-02T04:12:49;11.82;;;2.65;;
61025;SDS011;46911;32.650;-16.902;2022-08-02T04:14:53;13.88;;;3.13;;
61025;SDS011;46911;32.650;-16.902;2022-08-02T04:17:03;13.43;;;2.47;;
61025;SDS011;46911;32.650;-16.902;2022-08-02T04:19:16;9.80;;;2.67;;
61025;SDS011;46911;32.650;-16.902;2022-08-02T04:21:28;12.80;;;2.70;;
61025;SDS011;46911;32.650;-16.902;2022-08-02T04:23:34;13.15;;;2.63;;
61025;SDS011;46911;32.650;-16.902;2022-08-02T04:25:37;11.25;;;2.75;;
61025;SDS011;46911;32.650;-16.902;2022-08-02T04:27:40;16.90;;;3.20;;
61025;SDS011;46911;32.650;-16.902;2022-08-02T04:29:44;11.80;;;2.97;;
61025;SDS011;46911;32.650;-16.902;2022-08-02T04:31:49;13.88;;;2.45;;
61025;SDS011;46911;32.650;-16.902;2022-08-02T04:33:54;11.45;;;2.67;;
61025;SDS011;46911;32.650;-16.902;2022-08-02T04:35:58;12.27;;;2.45;;
61025;SDS011;46911;32.650;-16.902;2022-08-02T04:37:59;9.48;;;2.50;;
61025;SDS011;46911;32.650;-16.902;2022-08-02T04:40:09;16.48;;;3.40;;
61025;SDS011;46911;32.650;-16.902;2022-08-02T04:42:18;18.50;;;2.65;;
61025;SDS011;46911;32.650;-16.902;2022-08-02T04:44:26;8.95;;;3.00;;
61025;SDS011;46911;32.650;-16.902;2022-08-02T04:46:29;13.63;;;2.88;;
61025;SDS011;46911;32.650;-16.902;2022-08-02T04:48:30;7.65;;;2.55;;
61025;SDS011;46911;32.650;-16.902;2022-08-02T04:50:37;13.27;;;2.70;;
61025;SDS011;46911;32.650;-16.902;2022-08-02T04:52:40;13.65;;;2.70;;
61025;SDS011;46911;32.650;-16.902;2022-08-02T04:54:41;11.25;;;2.80;;
61025;SDS011;46911;32.650;-16.902;2022-08-02T04:56:41;7.38;;;2.47;;
61025;SDS011;46911;32.650;-16.902;2022-08-02T04:58:42;14.93;;;3.35;;
61025;SDS011;46911;32.650;-16.902;2022-08-02T05:00:46;15.50;;;2.75;;
61025;SDS011;46911;32.650;-16.902;2022-08-02T05:02:47;11.25;;;2.67;;
61025;SDS011;46911;32.650;-16.902;2022-08-02T05:04:49;16.85;;;2.53;;
61025;SDS011;46911;32.650;-16.902;2022-08-02T05:06:51;11.80;;;2.40;;
61025;SDS011;46911;32.650;-16.902;2022-08-02T05:08:51;15.05;;;2.92;;
61025;SDS011;46911;32.650;-16.902;2022-08-02T05:10:52;21.42;;;2.53;;
61025;SDS011;46911;32.650;-16.902;2022-08-02T05:12:55;15.60;;;3.13;;
61025;SDS011;46911;32.650;-16.902;2022-08-02T05:14:59;12.02;;;3.03;;
61025;SDS011;46911;32.650;-16.902;2022-08-02T05:17:02;14.50;;;2.83;;
61025;SDS011;46911;32.650;-16.902;2022-08-02T05:19:07;12.10;;;2.85;;
61025;SDS011;46911;32.650;-16.902;2022-08-02T05:21:08;15.10;;;3.28;;
61025;SDS011;46911;32.650;-16.902;2022-08-02T05:23:09;16.58;;;3.00;;
61025;SDS011;46911;32.650;-16.902;2022-08-02T05:25:13;10.38;;;2.80;;
61025;SDS011;46911;32.650;-16.902;2022-08-02T05:27:14;6.75;;;2.40;;
61025;SDS011;46911;32.650;-16.902;2022-08-02T05:29:20;10.80;;;2.78;;
61025;SDS011;46911;32.650;-16.902;2022-08-02T05:31:22;11.48;;;2.55;;
61025;SDS011;46911;32.650;-16.902;2022-08-02T05:33:25;15.20;;;3.22;;
61025;SDS011;46911;32.650;-16.902;2022-08-02T05:35:26;10.60;;;2.92;;
61025;SDS011;46911;32.650;-16.902;2022-08-02T05:37:29;18.02;;;2.78;;
61025;SDS011;46911;32.650;-16.902;2022-08-02T05:39:35;8.82;;;2.53;;
61025;SDS011;46911;32.650;-16.902;2022-08-02T05:41:38;14.52;;;3.50;;
61025;SDS011;46911;32.650;-16.902;2022-08-02T05:43:39;16.73;;;4.03;;
61025;SDS011;46911;32.650;-16.902;2022-08-02T05:45:46;11.55;;;2.67;;
61025;SDS011;46911;32.650;-16.902;2022-08-02T05:47:47;6.60;;;2.10;;
61025;SDS011;46911;32.650;-16.902;2022-08-02T05:49:50;13.45;;;3.28;;
61025;SDS011;46911;32.650;-16.902;2022-08-02T05:51:59;13.27;;;2.53;;
61025;SDS011;46911;32.650;-16.902;2022-08-02T05:54:24;14.48;;;2.60;;
61025;SDS011;46911;32.650;-16.902;2022-08-02T05:56:41;12.32;;;2.78;;
61025;SDS011;46911;32.650;-16.902;2022-08-02T05:58:55;13.82;;;3.15;;
61025;SDS011;46911;32.650;-16.902;2022-08-02T06:01:06;11.05;;;2.60;;
61025;SDS011;46911;32.650;-16.902;2022-08-02T06:03:28;21.63;;;3.53;;
61025;SDS011;46911;32.650;-16.902;2022-08-02T06:05:36;13.25;;;2.58;;
61025;SDS011;46911;32.650;-16.902;2022-08-02T06:07:40;10.95;;;2.65;;
61025;SDS011;46911;32.650;-16.902;2022-08-02T06:09:42;13.48;;;2.42;;
61025;SDS011;46911;32.650;-16.902;2022-08-02T06:11:48;18.08;;;3.25;;
61025;SDS011;46911;32.650;-16.902;2022-08-02T06:13:52;13.82;;;4.20;;
61025;SDS011;46911;32.650;-16.902;2022-08-02T06:15:56;12.90;;;2.47;;
61025;SDS011;46911;32.650;-16.902;2022-08-02T06:18:03;19.67;;;3.03;;
61025;SDS011;46911;32.650;-16.902;2022-08-02T06:20:06;7.32;;;2.60;;
61025;SDS011;46911;32.650;-16.902;2022-08-02T06:22:07;11.45;;;2.67;;
61025;SDS011;46911;32.650;-16.902;2022-08-02T06:24:16;13.63;;;2.65;;
61025;SDS011;46911;32.650;-16.902;2022-08-02T06:26:21;10.65;;;2.20;;
61025;SDS011;46911;32.650;-16.902;2022-08-02T06:28:23;18.27;;;3.17;;
61025;SDS011;46911;32.650;-16.902;2022-08-02T06:30:26;17.92;;;2.95;;
61025;SDS011;46911;32.650;-16.902;2022-08-02T06:32:28;18.58;;;2.88;;
61025;SDS011;46911;32.650;-16.902;2022-08-02T06:34:37;12.93;;;3.47;;
61025;SDS011;46911;32.650;-16.902;2022-08-02T06:36:44;10.38;;;2.85;;
61025;SDS011;46911;32.650;-16.902;2022-08-02T06:39:04;12.23;;;2.90;;
61025;SDS011;46911;32.650;-16.902;2022-08-02T06:41:13;11.15;;;2.47;;
61025;SDS011;46911;32.650;-16.902;2022-08-02T06:45:42;9.43;;;3.17;;
61025;SDS011;46911;32.650;-16.902;2022-08-02T06:47:46;12.45;;;3.65;;
61025;SDS011;46911;32.650;-16.902;2022-08-02T06:49:48;13.98;;;2.70;;
61025;SDS011;46911;32.650;-16.902;2022-08-02T06:51:51;14.35;;;2.08;;
61025;SDS011;46911;32.650;-16.902;2022-08-02T06:53:55;10.48;;;2.25;;
61025;SDS011;46911;32.650;-16.902;2022-08-02T06:55:56;11.20;;;3.10;;
61025;SDS011;46911;32.650;-16.902;2022-08-02T06:57:59;11.48;;;2.53;;
61025;SDS011;46911;32.650;-16.902;2022-08-02T07:00:03;14.52;;;3.08;;
61025;SDS011;46911;32.650;-16.902;2022-08-02T07:02:08;14.43;;;3.30;;
61025;SDS011;46911;32.650;-16.902;2022-08-02T07:04:15;10.25;;;2.55;;
61025;SDS011;46911;32.650;-16.902;2022-08-02T07:06:16;20.35;;;3.20;;
61025;SDS011;46911;32.650;-16.902;2022-08-02T07:08:21;11.30;;;2.85;;
61025;SDS011;46911;32.650;-16.902;2022-08-02T07:10:22;11.55;;;2.28;;
61025;SDS011;46911;32.650;-16.902;2022-08-02T07:12:23;15.65;;;2.95;;
61025;SDS011;46911;32.650;-16.902;2022-08-02T07:14:24;14.23;;;2.95;;
61025;SDS011;46911;32.650;-16.902;2022-08-02T07:16:25;21.67;;;3.05;;
61025;SDS011;46911;32.650;-16.902;2022-08-02T07:18:26;20.15;;;3.40;;
61025;SDS011;46911;32.650;-16.902;2022-08-02T07:20:27;17.98;;;2.85;;
61025;SDS011;46911;32.650;-16.902;2022-08-02T07:22:29;13.63;;;2.75;;
61025;SDS011;46911;32.650;-16.902;2022-08-02T07:24:37;11.43;;;2.30;;
61025;SDS011;46911;32.650;-16.902;2022-08-02T07:26:43;23.65;;;3.33;;
61025;SDS011;46911;32.650;-16.902;2022-08-02T07:28:44;11.98;;;3.75;;
61025;SDS011;46911;32.650;-16.902;2022-08-02T07:30:48;10.07;;;2.35;;
61025;SDS011;46911;32.650;-16.902;2022-08-02T07:32:52;13.48;;;2.95;;
61025;SDS011;46911;32.650;-16.902;2022-08-02T07:34:53;18.70;;;3.20;;
61025;SDS011;46911;32.650;-16.902;2022-08-02T07:36:54;13.35;;;3.92;;
61025;SDS011;46911;32.650;-16.902;2022-08-02T07:38:58;17.50;;;3.30;;
61025;SDS011;46911;32.650;-16.902;2022-08-02T07:41:02;24.70;;;3.30;;
61025;SDS011;46911;32.650;-16.902;2022-08-02T07:43:07;10.05;;;3.03;;
61025;SDS011;46911;32.650;-16.902;2022-08-02T07:45:09;19.15;;;3.30;;
61025;SDS011;46911;32.650;-16.902;2022-08-02T07:47:10;19.70;;;3.22;;
61025;SDS011;46911;32.650;-16.902;2022-08-02T07:49:13;19.30;;;3.50;;
61025;SDS011;46911;32.650;-16.902;2022-08-02T07:51:17;14.77;;;3.40;;
61025;SDS011;46911;32.650;-16.902;2022-08-02T07:53:22;17.70;;;4.38;;
61025;SDS011;46911;32.650;-16.902;2022-08-02T07:55:23;23.77;;;3.80;;
61025;SDS011;46911;32.650;-16.902;2022-08-02T07:57:24;21.83;;;3.28;;
61025;SDS011;46911;32.650;-16.902;2022-08-02T07:59:28;17.40;;;3.17;;
61025;SDS011;46911;32.650;-16.902;2022-08-02T08:01:29;20.40;;;3.17;;
61025;SDS011;46911;32.650;-16.902;2022-08-02T08:03:35;18.40;;;3.90;;
61025;SDS011;46911;32.650;-16.902;2022-08-02T08:05:36;14.95;;;2.72;;
61025;SDS011;46911;32.650;-16.902;2022-08-02T08:07:37;18.52;;;3.33;;
61025;SDS011;46911;32.650;-16.902;2022-08-02T08:09:40;19.92;;;3.45;;
61025;SDS011;46911;32.650;-16.902;2022-08-02T08:11:45;16.90;;;3.05;;
61025;SDS011;46911;32.650;-16.902;2022-08-02T08:13:46;18.85;;;3.72;;
61025;SDS011;46911;32.650;-16.902;2022-08-02T08:15:47;17.65;;;4.95;;
61025;SDS011;46911;32.650;-16.902;2022-08-02T08:17:48;17.23;;;2.95;;
61025;SDS011;46911;32.650;-16.902;2022-08-02T08:19:51;16.30;;;3.47;;
61025;SDS011;46911;32.650;-16.902;2022-08-02T08:21:52;21.90;;;3.35;;
61025;SDS011;46911;32.650;-16.902;2022-08-02T08:23:53;18.02;;;2.83;;
61025;SDS011;46911;32.650;-16.902;2022-08-02T08:25:57;18.55;;;3.38;;
61025;SDS011;46911;32.650;-16.902;2022-08-02T08:28:01;16.30;;;2.80;;
61025;SDS011;46911;32.650;-16.902;2022-08-02T08:30:02;23.75;;;3.03;;
61025;SDS011;46911;32.650;-16.902;2022-08-02T08:32:03;15.70;;;3.47;;
61025;SDS011;46911;32.650;-16.902;2022-08-02T08:34:05;17.27;;;3.25;;
61025;SDS011;46911;32.650;-16.902;2022-08-02T08:36:06;21.38;;;3.92;;
61025;SDS011;46911;32.650;-16.902;2022-08-02T08:38:11;19.65;;;2.95;;
61025;SDS011;46911;32.650;-16.902;2022-08-02T08:40:12;35.42;;;4.57;;
61025;SDS011;46911;32.650;-16.902;2022-08-02T08:42:13;18.52;;;3.30;;
61025;SDS011;46911;32.650;-16.902;2022-08-02T08:44:17;18.25;;;3.60;;
61025;SDS011;46911;32.650;-16.902;2022-08-02T08:48:31;13.98;;;2.83;;
61025;SDS011;46911;32.650;-16.902;2022-08-02T08:50:38;21.90;;;3.58;;
61025;SDS011;46911;32.650;-16.902;2022-08-02T08:52:56;9.68;;;2.67;;
61025;SDS011;46911;32.650;-16.902;2022-08-02T08:55:05;18.60;;;3.67;;
61025;SDS011;46911;32.650;-16.902;2022-08-02T08:57:09;14.43;;;3.03;;
61025;SDS011;46911;32.650;-16.902;2022-08-02T08:59:13;19.05;;;4.15;;
61025;SDS011;46911;32.650;-16.902;2022-08-02T09:01:14;19.88;;;3.55;;
61025;SDS011;46911;32.650;-16.902;2022-08-02T09:03:17;16.25;;;3.08;;
61025;SDS011;46911;32.650;-16.902;2022-08-02T09:05:18;14.07;;;3.13;;
61025;SDS011;46911;32.650;-16.902;2022-08-02T09:07:22;20.98;;;3.47;;
61025;SDS011;46911;32.650;-16.902;2022-08-02T09:09:23;16.13;;;2.88;;
61025;SDS011;46911;32.650;-16.902;2022-08-02T09:11:27;21.33;;;3.13;;
61025;SDS011;46911;32.650;-16.902;2022-08-02T09:13:30;15.88;;;3.40;;
61025;SDS011;46911;32.650;-16.902;2022-08-02T09:15:31;13.13;;;3.03;;
61025;SDS011;46911;32.650;-16.902;2022-08-02T09:17:32;20.85;;;3.15;;
61025;SDS011;46911;32.650;-16.902;2022-08-02T09:19:33;19.08;;;2.92;;
61025;SDS011;46911;32.650;-16.902;2022-08-02T09:21:36;21.00;;;3.35;;
61025;SDS011;46911;32.650;-16.902;2022-08-02T09:23:40;17.85;;;4.30;;
61025;SDS011;46911;32.650;-16.902;2022-08-02T09:28:04;22.67;;;3.80;;
61025;SDS011;46911;32.650;-16.902;2022-08-02T09:30:05;15.02;;;3.90;;
61025;SDS011;46911;32.650;-16.902;2022-08-02T09:32:13;14.05;;;3.38;;
61025;SDS011;46911;32.650;-16.902;2022-08-02T09:34:15;21.45;;;3.58;;
61025;SDS011;46911;32.650;-16.902;2022-08-02T09:36:20;18.70;;;3.25;;
61025;SDS011;46911;32.650;-16.902;2022-08-02T09:38:21;19.98;;;3.08;;
61025;SDS011;46911;32.650;-16.902;2022-08-02T09:40:34;17.40;;;2.72;;
61025;SDS011;46911;32.650;-16.902;2022-08-02T09:42:37;23.23;;;3.45;;
61025;SDS011;46911;32.650;-16.902;2022-08-02T09:44:58;23.13;;;3.40;;
61025;SDS011;46911;32.650;-16.902;2022-08-02T09:47:01;19.67;;;3.60;;
61025;SDS011;46911;32.650;-16.902;2022-08-02T09:49:16;19.13;;;3.30;;
61025;SDS011;46911;32.650;-16.902;2022-08-02T09:51:21;20.20;;;3.00;;
61025;SDS011;46911;32.650;-16.902;2022-08-02T09:53:25;26.63;;;3.58;;
61025;SDS011;46911;32.650;-16.902;2022-08-02T09:55:27;21.55;;;3.25;;
61025;SDS011;46911;32.650;-16.902;2022-08-02T09:57:28;13.50;;;3.65;;
61025;SDS011;46911;32.650;-16.902;2022-08-02T09:59:29;16.85;;;3.90;;
61025;SDS011;46911;32.650;-16.902;2022-08-02T10:01:33;13.88;;;3.22;;
61025;SDS011;46911;32.650;-16.902;2022-08-02T10:03:34;20.85;;;3.25;;
61025;SDS011;46911;32.650;-16.902;2022-08-02T10:06:11;13.60;;;3.05;;
61025;SDS011;46911;32.650;-16.902;2022-08-02T10:08:05;22.10;;;3.55;;
61025;SDS011;46911;32.650;-16.902;2022-08-02T10:10:06;18.10;;;3.63;;
61025;SDS011;46911;32.650;-16.902;2022-08-02T10:12:07;16.05;;;2.78;;
61025;SDS011;46911;32.650;-16.902;2022-08-02T10:14:12;14.18;;;2.80;;
61025;SDS011;46911;32.650;-16.902;2022-08-02T10:16:21;18.25;;;3.03;;
61025;SDS011;46911;32.650;-16.902;2022-08-02T10:18:24;14.52;;;2.42;;
61025;SDS011;46911;32.650;-16.902;2022-08-02T10:20:26;23.65;;;3.55;;
61025;SDS011;46911;32.650;-16.902;2022-08-02T10:22:29;13.23;;;3.60;;
61025;SDS011;46911;32.650;-16.902;2022-08-02T10:24:35;18.83;;;3.03;;
61025;SDS011;46911;32.650;-16.902;2022-08-02T10:26:37;17.08;;;3.03;;
61025;SDS011;46911;32.650;-16.902;2022-08-02T10:28:40;13.23;;;2.90;;
61025;SDS011;46911;32.650;-16.902;2022-08-02T10:30:45;14.18;;;2.80;;
61025;SDS011;46911;32.650;-16.902;2022-08-02T10:32:51;21.67;;;4.95;;
61025;SDS011;46911;32.650;-16.902;2022-08-02T10:37:03;22.67;;;7.03;;
61025;SDS011;46911;32.650;-16.902;2022-08-02T10:39:06;26.38;;;8.48;;
61025;SDS011;46911;32.650;-16.902;2022-08-02T10:41:07;16.20;;;3.95;;
61025;SDS011;46911;32.650;-16.902;2022-08-02T10:43:11;19.83;;;4.47;;
61025;SDS011;46911;32.650;-16.902;2022-08-02T10:45:17;14.95;;;3.03;;
61025;SDS011;46911;32.650;-16.902;2022-08-02T10:47:23;18.42;;;3.30;;
61025;SDS011;46911;32.650;-16.902;2022-08-02T10:49:27;23.27;;;4.10;;
61025;SDS011;46911;32.650;-16.902;2022-08-02T10:54:11;18.08;;;3.58;;
61025;SDS011;46911;32.650;-16.902;2022-08-02T10:56:20;22.15;;;3.92;;
61025;SDS011;46911;32.650;-16.902;2022-08-02T10:58:49;18.38;;;4.13;;
61025;SDS011;46911;32.650;-16.902;2022-08-02T11:01:37;23.70;;;3.92;;
61025;SDS011;46911;32.650;-16.902;2022-08-02T11:03:43;19.83;;;4.05;;
61025;SDS011;46911;32.650;-16.902;2022-08-02T11:05:57;18.02;;;3.47;;
61025;SDS011;46911;32.650;-16.902;2022-08-02T11:08:18;18.08;;;3.28;;
61025;SDS011;46911;32.650;-16.902;2022-08-02T11:12:26;21.70;;;3.53;;
61025;SDS011;46911;32.650;-16.902;2022-08-02T11:14:30;19.65;;;3.08;;
61025;SDS011;46911;32.650;-16.902;2022-08-02T11:19:12;19.70;;;4.22;;
61025;SDS011;46911;32.650;-16.902;2022-08-02T11:23:32;17.20;;;3.53;;
61025;SDS011;46911;32.650;-16.902;2022-08-02T11:25:37;18.45;;;3.85;;
61025;SDS011;46911;32.650;-16.902;2022-08-02T11:27:38;20.92;;;4.47;;
61025;SDS011;46911;32.650;-16.902;2022-08-02T11:29:46;23.10;;;4.70;;
61025;SDS011;46911;32.650;-16.902;2022-08-02T11:31:50;22.23;;;3.85;;
61025;SDS011;46911;32.650;-16.902;2022-08-02T11:33:54;13.90;;;3.20;;
61025;SDS011;46911;32.650;-16.902;2022-08-02T11:35:58;21.52;;;3.05;;
61025;SDS011;46911;32.650;-16.902;2022-08-02T11:38:11;19.08;;;3.60;;
61025;SDS011;46911;32.650;-16.902;2022-08-02T11:40:18;21.33;;;3.95;;
61025;SDS011;46911;32.650;-16.902;2022-08-02T11:42:19;25.83;;;4.28;;
61025;SDS011;46911;32.650;-16.902;2022-08-02T11:44:38;19.70;;;3.35;;
61025;SDS011;46911;32.650;-16.902;2022-08-02T11:46:40;14.70;;;3.50;;
61025;SDS011;46911;32.650;-16.902;2022-08-02T11:48:42;24.45;;;5.63;;
61025;SDS011;46911;32.650;-16.902;2022-08-02T11:50:45;24.48;;;3.92;;
61025;SDS011;46911;32.650;-16.902;2022-08-02T11:52:49;25.02;;;4.15;;
61025;SDS011;46911;32.650;-16.902;2022-08-02T11:54:52;18.27;;;3.05;;
61025;SDS011;46911;32.650;-16.902;2022-08-02T11:57:08;26.15;;;3.90;;
61025;SDS011;46911;32.650;-16.902;2022-08-02T11:59:16;19.95;;;3.38;;
61025;SDS011;46911;32.650;-16.902;2022-08-02T12:01:17;16.55;;;3.15;;
61025;SDS011;46911;32.650;-16.902;2022-08-02T12:03:18;18.27;;;3.17;;
61025;SDS011;46911;32.650;-16.902;2022-08-02T12:05:20;14.95;;;3.38;;
61025;SDS011;46911;32.650;-16.902;2022-08-02T12:07:30;15.80;;;2.97;;
61025;SDS011;46911;32.650;-16.902;2022-08-02T12:09:38;16.23;;;3.03;;
61025;SDS011;46911;32.650;-16.902;2022-08-02T12:11:46;18.25;;;4.65;;
61025;SDS011;46911;32.650;-16.902;2022-08-02T12:13:49;23.05;;;4.28;;
61025;SDS011;46911;32.650;-16.902;2022-08-02T12:15:50;14.98;;;3.40;;
61025;SDS011;46911;32.650;-16.902;2022-08-02T12:17:51;27.30;;;5.15;;
61025;SDS011;46911;32.650;-16.902;2022-08-02T12:20:10;12.43;;;3.55;;
61025;SDS011;46911;32.650;-16.902;2022-08-02T12:24:26;17.27;;;4.00;;